sensor_id;sensor_type;location;lat;lon;timestamp;P1;durP1;ratioP1;P2;durP2;ratioP2
78887;SDS011;68276;49.326;8.690;2023-04-25T00:00:31;9.13;;;2.67;;
78887;SDS011;68276;49.326;8.690;2023-04-25T00:02:56;8.10;;;3.20;;
78887;SDS011;68276;49.326;8.690;2023-04-25T00:05:22;7.35;;;2.63;;
78887;SDS011;68276;49.326;8.690;2023-04-25T00:07:49;9.52;;;2.78;;
78887;SDS011;68276;49.326;8.690;2023-04-25T00:10:15;8.77;;;2.72;;
78887;SDS011;68276;49.326;8.690;2023-04-25T00:12:40;8.48;;;2.85;;
78887;SDS011;68276;49.326;8.690;2023-04-25T00:15:06;7.68;;;2.85;;
78887;SDS011;68276;49.326;8.690;2023-04-25T00:17:32;6.90;;;2.67;;
78887;SDS011;68276;49.326;8.690;2023-04-25T00:19:58;7.47;;;2.72;;
78887;SDS011;68276;49.326;8.690;2023-04-25T00:22:23;7.13;;;2.58;;
78887;SDS011;68276;49.326;8.690;2023-04-25T00:24:48;10.15;;;3.30;;
78887;SDS011;68276;49.326;8.690;2023-04-25T00:27:14;7.55;;;3.08;;
78887;SDS011;68276;49.326;8.690;2023-04-25T00:29:40;7.85;;;2.85;;
78887;SDS011;68276;49.326;8.690;2023-04-25T00:32:05;8.57;;;2.70;;
78887;SDS011;68276;49.326;8.690;2023-04-25T00:34:31;8.07;;;2.80;;
78887;SDS011;68276;49.326;8.690;2023-04-25T00:36:56;9.67;;;3.10;;
78887;SDS011;68276;49.326;8.690;2023-04-25T00:39:22;7.38;;;2.67;;
78887;SDS011;68276;49.326;8.690;2023-04-25T00:41:47;8.68;;;3.50;;
78887;SDS011;68276;49.326;8.690;2023-04-25T00:44:13;7.90;;;3.00;;
78887;SDS011;68276;49.326;8.690;2023-04-25T00:46:41;8.95;;;3.63;;
78887;SDS011;68276;49.326;8.690;2023-04-25T00:49:07;8.20;;;3.00;;
78887;SDS011;68276;49.326;8.690;2023-04-25T00:51:33;8.35;;;2.70;;
78887;SDS011;68276;49.326;8.690;2023-04-25T00:53:59;8.85;;;3.30;;
78887;SDS011;68276;49.326;8.690;2023-04-25T00:56:25;9.30;;;2.92;;
78887;SDS011;68276;49.326;8.690;2023-04-25T00:58:52;7.32;;;2.70;;
78887;SDS011;68276;49.326;8.690;2023-04-25T01:01:19;6.57;;;2.45;;
78887;SDS011;68276;49.326;8.690;2023-04-25T01:03:44;8.27;;;3.20;;
78887;SDS011;68276;49.326;8.690;2023-04-25T01:06:11;7.95;;;3.13;;
78887;SDS011;68276;49.326;8.690;2023-04-25T01:08:37;8.50;;;3.20;;
78887;SDS011;68276;49.326;8.690;2023-04-25T01:11:04;7.43;;;3.00;;
78887;SDS011;68276;49.326;8.690;2023-04-25T01:13:30;7.88;;;3.08;;
78887;SDS011;68276;49.326;8.690;2023-04-25T01:18:22;7.60;;;2.85;;
78887;SDS011;68276;49.326;8.690;2023-04-25T01:20:49;9.15;;;3.35;;
78887;SDS011;68276;49.326;8.690;2023-04-25T01:23:16;10.73;;;3.20;;
78887;SDS011;68276;49.326;8.690;2023-04-25T01:25:41;8.77;;;3.10;;
78887;SDS011;68276;49.326;8.690;2023-04-25T01:28:07;7.97;;;2.83;;
78887;SDS011;68276;49.326;8.690;2023-04-25T01:30:32;8.27;;;3.00;;
78887;SDS011;68276;49.326;8.690;2023-04-25T01:35:25;7.57;;;2.83;;
78887;SDS011;68276;49.326;8.690;2023-04-25T01:37:50;9.23;;;3.03;;
78887;SDS011;68276;49.326;8.690;2023-04-25T01:40:16;10.85;;;3.33;;
78887;SDS011;68276;49.326;8.690;2023-04-25T01:42:43;8.45;;;3.22;;
78887;SDS011;68276;49.326;8.690;2023-04-25T01:45:10;9.10;;;3.45;;
78887;SDS011;68276;49.326;8.690;2023-04-25T01:47:36;7.75;;;3.03;;
78887;SDS011;68276;49.326;8.690;2023-04-25T01:50:04;7.55;;;3.15;;
78887;SDS011;68276;49.326;8.690;2023-04-25T01:52:31;7.97;;;3.00;;
78887;SDS011;68276;49.326;8.690;2023-04-25T01:54:57;9.43;;;3.40;;
78887;SDS011;68276;49.326;8.690;2023-04-25T01:57:24;9.05;;;3.05;;
78887;SDS011;68276;49.326;8.690;2023-04-25T01:59:49;11.50;;;3.10;;
78887;SDS011;68276;49.326;8.690;2023-04-25T02:02:16;8.75;;;3.10;;
78887;SDS011;68276;49.326;8.690;2023-04-25T02:04:41;9.82;;;3.53;;
78887;SDS011;68276;49.326;8.690;2023-04-25T02:07:06;9.70;;;3.30;;
78887;SDS011;68276;49.326;8.690;2023-04-25T02:09:32;10.33;;;3.63;;
78887;SDS011;68276;49.326;8.690;2023-04-25T02:11:57;11.43;;;3.30;;
78887;SDS011;68276;49.326;8.690;2023-04-25T02:14:23;8.57;;;3.13;;
78887;SDS011;68276;49.326;8.690;2023-04-25T02:16:48;7.38;;;2.92;;
78887;SDS011;68276;49.326;8.690;2023-04-25T02:19:14;9.13;;;3.20;;
78887;SDS011;68276;49.326;8.690;2023-04-25T02:21:39;7.95;;;3.15;;
78887;SDS011;68276;49.326;8.690;2023-04-25T02:24:05;7.55;;;2.70;;
78887;SDS011;68276;49.326;8.690;2023-04-25T02:26:31;8.95;;;3.08;;
78887;SDS011;68276;49.326;8.690;2023-04-25T02:28:56;8.90;;;3.30;;
78887;SDS011;68276;49.326;8.690;2023-04-25T02:31:22;8.00;;;2.95;;
78887;SDS011;68276;49.326;8.690;2023-04-25T02:33:48;8.07;;;2.80;;
78887;SDS011;68276;49.326;8.690;2023-04-25T02:36:13;6.97;;;2.63;;
78887;SDS011;68276;49.326;8.690;2023-04-25T02:38:39;8.40;;;2.60;;
78887;SDS011;68276;49.326;8.690;2023-04-25T02:41:04;8.98;;;2.55;;
78887;SDS011;68276;49.326;8.690;2023-04-25T02:43:30;8.55;;;2.70;;
78887;SDS011;68276;49.326;8.690;2023-04-25T02:45:55;7.68;;;2.83;;
78887;SDS011;68276;49.326;8.690;2023-04-25T02:48:21;10.77;;;3.00;;
78887;SDS011;68276;49.326;8.690;2023-04-25T02:50:46;9.10;;;2.70;;
78887;SDS011;68276;49.326;8.690;2023-04-25T02:53:11;8.13;;;2.73;;
78887;SDS011;68276;49.326;8.690;2023-04-25T02:55:37;8.85;;;3.13;;
78887;SDS011;68276;49.326;8.690;2023-04-25T02:58:02;8.10;;;3.00;;
78887;SDS011;68276;49.326;8.690;2023-04-25T03:00:28;9.10;;;2.70;;
78887;SDS011;68276;49.326;8.690;2023-04-25T03:02:53;10.20;;;3.38;;
78887;SDS011;68276;49.326;8.690;2023-04-25T03:05:19;8.17;;;3.10;;
78887;SDS011;68276;49.326;8.690;2023-04-25T03:07:44;9.80;;;3.38;;
78887;SDS011;68276;49.326;8.690;2023-04-25T03:10:10;10.85;;;3.60;;
78887;SDS011;68276;49.326;8.690;2023-04-25T03:12:36;9.10;;;3.33;;
78887;SDS011;68276;49.326;8.690;2023-04-25T03:15:02;11.77;;;3.80;;
78887;SDS011;68276;49.326;8.690;2023-04-25T03:17:28;9.13;;;3.83;;
78887;SDS011;68276;49.326;8.690;2023-04-25T03:19:54;9.45;;;3.55;;
78887;SDS011;68276;49.326;8.690;2023-04-25T03:22:20;9.60;;;3.75;;
78887;SDS011;68276;49.326;8.690;2023-04-25T03:24:46;9.10;;;3.50;;
78887;SDS011;68276;49.326;8.690;2023-04-25T03:27:12;9.25;;;3.60;;
78887;SDS011;68276;49.326;8.690;2023-04-25T03:29:40;9.60;;;3.55;;
78887;SDS011;68276;49.326;8.690;2023-04-25T03:32:06;8.57;;;3.38;;
78887;SDS011;68276;49.326;8.690;2023-04-25T03:34:31;9.43;;;3.95;;
78887;SDS011;68276;49.326;8.690;2023-04-25T03:36:56;8.50;;;3.43;;
78887;SDS011;68276;49.326;8.690;2023-04-25T03:39:22;11.87;;;4.03;;
78887;SDS011;68276;49.326;8.690;2023-04-25T03:41:47;10.10;;;4.20;;
78887;SDS011;68276;49.326;8.690;2023-04-25T03:44:13;9.20;;;3.67;;
78887;SDS011;68276;49.326;8.690;2023-04-25T03:46:38;12.07;;;3.88;;
78887;SDS011;68276;49.326;8.690;2023-04-25T03:49:04;9.53;;;3.63;;
78887;SDS011;68276;49.326;8.690;2023-04-25T03:51:29;9.77;;;3.45;;
78887;SDS011;68276;49.326;8.690;2023-04-25T03:53:55;10.80;;;3.25;;
78887;SDS011;68276;49.326;8.690;2023-04-25T03:56:21;9.70;;;3.45;;
78887;SDS011;68276;49.326;8.690;2023-04-25T03:58:46;10.07;;;3.92;;
78887;SDS011;68276;49.326;8.690;2023-04-25T04:01:12;8.82;;;3.40;;
78887;SDS011;68276;49.326;8.690;2023-04-25T04:03:37;9.50;;;3.43;;
78887;SDS011;68276;49.326;8.690;2023-04-25T04:06:03;9.43;;;3.80;;
78887;SDS011;68276;49.326;8.690;2023-04-25T04:08:30;9.88;;;3.90;;
78887;SDS011;68276;49.326;8.690;2023-04-25T04:10:57;8.32;;;3.20;;
78887;SDS011;68276;49.326;8.690;2023-04-25T04:13:23;9.38;;;3.40;;
78887;SDS011;68276;49.326;8.690;2023-04-25T04:15:51;10.57;;;3.63;;
78887;SDS011;68276;49.326;8.690;2023-04-25T04:18:16;9.40;;;3.42;;
78887;SDS011;68276;49.326;8.690;2023-04-25T04:20:41;10.80;;;4.20;;
78887;SDS011;68276;49.326;8.690;2023-04-25T04:23:07;9.60;;;4.00;;
78887;SDS011;68276;49.326;8.690;2023-04-25T04:25:32;8.70;;;3.60;;
78887;SDS011;68276;49.326;8.690;2023-04-25T04:27:57;8.93;;;3.63;;
78887;SDS011;68276;49.326;8.690;2023-04-25T04:30:23;9.85;;;3.70;;
78887;SDS011;68276;49.326;8.690;2023-04-25T04:32:50;10.45;;;4.10;;
78887;SDS011;68276;49.326;8.690;2023-04-25T04:35:16;11.88;;;3.90;;
78887;SDS011;68276;49.326;8.690;2023-04-25T04:37:42;9.45;;;3.78;;
78887;SDS011;68276;49.326;8.690;2023-04-25T04:40:08;9.40;;;3.88;;
78887;SDS011;68276;49.326;8.690;2023-04-25T04:42:34;9.75;;;3.70;;
78887;SDS011;68276;49.326;8.690;2023-04-25T04:47:26;12.10;;;4.38;;
78887;SDS011;68276;49.326;8.690;2023-04-25T04:49:56;10.27;;;3.83;;
78887;SDS011;68276;49.326;8.690;2023-04-25T04:52:22;10.55;;;3.65;;
78887;SDS011;68276;49.326;8.690;2023-04-25T04:54:47;10.02;;;4.25;;
78887;SDS011;68276;49.326;8.690;2023-04-25T04:57:13;8.98;;;3.65;;
78887;SDS011;68276;49.326;8.690;2023-04-25T04:59:38;11.23;;;4.35;;
78887;SDS011;68276;49.326;8.690;2023-04-25T05:02:03;10.65;;;4.40;;
78887;SDS011;68276;49.326;8.690;2023-04-25T05:04:29;10.30;;;4.20;;
78887;SDS011;68276;49.326;8.690;2023-04-25T05:06:54;10.33;;;4.10;;
78887;SDS011;68276;49.326;8.690;2023-04-25T05:09:19;10.07;;;3.83;;
78887;SDS011;68276;49.326;8.690;2023-04-25T05:11:45;11.05;;;4.80;;
78887;SDS011;68276;49.326;8.690;2023-04-25T05:14:10;12.27;;;4.40;;
78887;SDS011;68276;49.326;8.690;2023-04-25T05:16:36;10.03;;;4.17;;
78887;SDS011;68276;49.326;8.690;2023-04-25T05:19:01;10.60;;;4.03;;
78887;SDS011;68276;49.326;8.690;2023-04-25T05:21:27;9.23;;;3.93;;
78887;SDS011;68276;49.326;8.690;2023-04-25T05:23:53;11.43;;;4.63;;
78887;SDS011;68276;49.326;8.690;2023-04-25T05:26:19;10.57;;;4.60;;
78887;SDS011;68276;49.326;8.690;2023-04-25T05:28:45;11.35;;;4.50;;
78887;SDS011;68276;49.326;8.690;2023-04-25T05:31:11;20.85;;;4.82;;
78887;SDS011;68276;49.326;8.690;2023-04-25T05:33:36;9.88;;;3.67;;
78887;SDS011;68276;49.326;8.690;2023-04-25T05:36:02;11.73;;;4.22;;
78887;SDS011;68276;49.326;8.690;2023-04-25T05:38:27;8.82;;;3.58;;
78887;SDS011;68276;49.326;8.690;2023-04-25T05:40:52;10.20;;;3.75;;
78887;SDS011;68276;49.326;8.690;2023-04-25T05:43:18;10.27;;;4.25;;
78887;SDS011;68276;49.326;8.690;2023-04-25T05:45:44;10.80;;;4.43;;
78887;SDS011;68276;49.326;8.690;2023-04-25T05:48:09;10.23;;;4.20;;
78887;SDS011;68276;49.326;8.690;2023-04-25T05:50:35;10.63;;;4.32;;
78887;SDS011;68276;49.326;8.690;2023-04-25T05:53:00;9.80;;;4.25;;
78887;SDS011;68276;49.326;8.690;2023-04-25T05:55:26;9.02;;;3.70;;
78887;SDS011;68276;49.326;8.690;2023-04-25T05:57:51;9.23;;;3.88;;
78887;SDS011;68276;49.326;8.690;2023-04-25T06:00:16;10.43;;;4.40;;
78887;SDS011;68276;49.326;8.690;2023-04-25T06:02:43;9.35;;;4.18;;
78887;SDS011;68276;49.326;8.690;2023-04-25T06:05:09;9.38;;;3.95;;
78887;SDS011;68276;49.326;8.690;2023-04-25T06:07:34;11.85;;;4.05;;
78887;SDS011;68276;49.326;8.690;2023-04-25T06:10:00;8.73;;;3.60;;
78887;SDS011;68276;49.326;8.690;2023-04-25T06:12:26;10.43;;;4.22;;
78887;SDS011;68276;49.326;8.690;2023-04-25T06:14:51;10.27;;;3.60;;
78887;SDS011;68276;49.326;8.690;2023-04-25T06:17:17;9.90;;;3.73;;
78887;SDS011;68276;49.326;8.690;2023-04-25T06:19:42;10.63;;;4.10;;
78887;SDS011;68276;49.326;8.690;2023-04-25T06:22:07;9.83;;;3.90;;
78887;SDS011;68276;49.326;8.690;2023-04-25T06:24:33;10.98;;;3.88;;
78887;SDS011;68276;49.326;8.690;2023-04-25T06:26:59;10.93;;;4.32;;
78887;SDS011;68276;49.326;8.690;2023-04-25T06:29:25;11.77;;;4.75;;
78887;SDS011;68276;49.326;8.690;2023-04-25T06:31:50;11.43;;;4.30;;
78887;SDS011;68276;49.326;8.690;2023-04-25T06:34:16;10.07;;;3.78;;
78887;SDS011;68276;49.326;8.690;2023-04-25T06:36:42;11.95;;;4.57;;
78887;SDS011;68276;49.326;8.690;2023-04-25T06:39:09;11.20;;;4.68;;
78887;SDS011;68276;49.326;8.690;2023-04-25T06:41:34;12.55;;;4.65;;
78887;SDS011;68276;49.326;8.690;2023-04-25T06:44:00;9.77;;;3.95;;
78887;SDS011;68276;49.326;8.690;2023-04-25T06:46:26;10.32;;;4.63;;
78887;SDS011;68276;49.326;8.690;2023-04-25T06:48:51;10.55;;;4.22;;
78887;SDS011;68276;49.326;8.690;2023-04-25T06:51:17;12.57;;;4.82;;
78887;SDS011;68276;49.326;8.690;2023-04-25T06:53:42;11.55;;;4.65;;
78887;SDS011;68276;49.326;8.690;2023-04-25T06:56:08;12.55;;;4.85;;
78887;SDS011;68276;49.326;8.690;2023-04-25T06:58:33;11.73;;;4.85;;
78887;SDS011;68276;49.326;8.690;2023-04-25T07:00:59;10.07;;;4.07;;
78887;SDS011;68276;49.326;8.690;2023-04-25T07:03:24;11.43;;;4.47;;
78887;SDS011;68276;49.326;8.690;2023-04-25T07:05:50;13.68;;;5.63;;
78887;SDS011;68276;49.326;8.690;2023-04-25T07:08:15;12.85;;;5.00;;
78887;SDS011;68276;49.326;8.690;2023-04-25T07:10:41;11.25;;;4.40;;
78887;SDS011;68276;49.326;8.690;2023-04-25T07:13:06;12.80;;;5.13;;
78887;SDS011;68276;49.326;8.690;2023-04-25T07:15:32;10.55;;;4.32;;
78887;SDS011;68276;49.326;8.690;2023-04-25T07:17:58;13.20;;;5.07;;
78887;SDS011;68276;49.326;8.690;2023-04-25T07:20:23;10.60;;;4.67;;
78887;SDS011;68276;49.326;8.690;2023-04-25T07:22:49;11.40;;;5.25;;
78887;SDS011;68276;49.326;8.690;2023-04-25T07:25:15;11.40;;;5.13;;
78887;SDS011;68276;49.326;8.690;2023-04-25T07:27:41;10.75;;;4.20;;
78887;SDS011;68276;49.326;8.690;2023-04-25T07:30:07;13.18;;;5.30;;
78887;SDS011;68276;49.326;8.690;2023-04-25T07:32:33;12.23;;;5.35;;
78887;SDS011;68276;49.326;8.690;2023-04-25T07:34:58;11.17;;;4.83;;
78887;SDS011;68276;49.326;8.690;2023-04-25T07:37:23;16.13;;;5.75;;
78887;SDS011;68276;49.326;8.690;2023-04-25T07:39:51;11.57;;;5.22;;
78887;SDS011;68276;49.326;8.690;2023-04-25T07:42:22;15.52;;;6.78;;
78887;SDS011;68276;49.326;8.690;2023-04-25T07:44:47;13.00;;;5.67;;
78887;SDS011;68276;49.326;8.690;2023-04-25T07:47:13;13.43;;;5.32;;
78887;SDS011;68276;49.326;8.690;2023-04-25T07:49:38;12.63;;;5.50;;
78887;SDS011;68276;49.326;8.690;2023-04-25T07:52:04;14.07;;;5.28;;
78887;SDS011;68276;49.326;8.690;2023-04-25T07:54:33;12.30;;;4.90;;
78887;SDS011;68276;49.326;8.690;2023-04-25T07:56:58;10.97;;;4.20;;
78887;SDS011;68276;49.326;8.690;2023-04-25T07:59:24;11.63;;;4.55;;
78887;SDS011;68276;49.326;8.690;2023-04-25T08:01:50;14.60;;;4.87;;
78887;SDS011;68276;49.326;8.690;2023-04-25T08:04:15;12.20;;;4.72;;
78887;SDS011;68276;49.326;8.690;2023-04-25T08:06:41;12.25;;;5.05;;
78887;SDS011;68276;49.326;8.690;2023-04-25T08:09:07;13.73;;;4.90;;
78887;SDS011;68276;49.326;8.690;2023-04-25T08:11:34;10.98;;;3.92;;
78887;SDS011;68276;49.326;8.690;2023-04-25T08:14:00;12.80;;;4.10;;
78887;SDS011;68276;49.326;8.690;2023-04-25T08:16:25;10.13;;;3.42;;
78887;SDS011;68276;49.326;8.690;2023-04-25T08:18:51;12.10;;;4.15;;
78887;SDS011;68276;49.326;8.690;2023-04-25T08:21:16;11.30;;;3.40;;
78887;SDS011;68276;49.326;8.690;2023-04-25T08:23:41;17.23;;;3.93;;
78887;SDS011;68276;49.326;8.690;2023-04-25T08:26:07;14.67;;;4.30;;
78887;SDS011;68276;49.326;8.690;2023-04-25T08:28:32;12.63;;;3.93;;
78887;SDS011;68276;49.326;8.690;2023-04-25T08:30:58;12.10;;;3.85;;
78887;SDS011;68276;49.326;8.690;2023-04-25T08:33:23;12.52;;;4.43;;
78887;SDS011;68276;49.326;8.690;2023-04-25T08:35:48;12.25;;;4.45;;
78887;SDS011;68276;49.326;8.690;2023-04-25T08:38:14;13.60;;;4.53;;
78887;SDS011;68276;49.326;8.690;2023-04-25T08:40:40;13.23;;;3.97;;
78887;SDS011;68276;49.326;8.690;2023-04-25T08:43:06;12.38;;;4.72;;
78887;SDS011;68276;49.326;8.690;2023-04-25T08:45:38;10.73;;;3.67;;
78887;SDS011;68276;49.326;8.690;2023-04-25T08:48:10;12.57;;;3.70;;
78887;SDS011;68276;49.326;8.690;2023-04-25T08:50:40;14.07;;;3.50;;
78887;SDS011;68276;49.326;8.690;2023-04-25T08:53:11;10.68;;;3.40;;
78887;SDS011;68276;49.326;8.690;2023-04-25T08:55:43;9.10;;;3.35;;
78887;SDS011;68276;49.326;8.690;2023-04-25T08:58:10;12.23;;;3.05;;
78887;SDS011;68276;49.326;8.690;2023-04-25T09:00:36;11.05;;;2.90;;
78887;SDS011;68276;49.326;8.690;2023-04-25T09:03:02;11.55;;;3.22;;
78887;SDS011;68276;49.326;8.690;2023-04-25T09:05:28;12.23;;;2.95;;
78887;SDS011;68276;49.326;8.690;2023-04-25T09:07:53;10.27;;;3.13;;
78887;SDS011;68276;49.326;8.690;2023-04-25T09:10:19;10.03;;;3.10;;
78887;SDS011;68276;49.326;8.690;2023-04-25T09:12:44;12.38;;;3.53;;
78887;SDS011;68276;49.326;8.690;2023-04-25T09:17:37;12.50;;;4.10;;
78887;SDS011;68276;49.326;8.690;2023-04-25T09:20:07;11.32;;;3.22;;
78887;SDS011;68276;49.326;8.690;2023-04-25T09:22:34;12.00;;;2.72;;
78887;SDS011;68276;49.326;8.690;2023-04-25T09:25:08;8.48;;;2.58;;
78887;SDS011;68276;49.326;8.690;2023-04-25T09:27:35;8.85;;;2.45;;
78887;SDS011;68276;49.326;8.690;2023-04-25T09:30:01;9.63;;;2.70;;
78887;SDS011;68276;49.326;8.690;2023-04-25T09:32:28;10.18;;;3.10;;
78887;SDS011;68276;49.326;8.690;2023-04-25T09:34:54;11.50;;;2.95;;
78887;SDS011;68276;49.326;8.690;2023-04-25T09:37:24;9.70;;;3.20;;
78887;SDS011;68276;49.326;8.690;2023-04-25T09:39:52;10.68;;;3.15;;
78887;SDS011;68276;49.326;8.690;2023-04-25T09:42:21;9.85;;;3.22;;
78887;SDS011;68276;49.326;8.690;2023-04-25T09:44:54;10.13;;;3.25;;
78887;SDS011;68276;49.326;8.690;2023-04-25T09:47:20;11.93;;;2.90;;
78887;SDS011;68276;49.326;8.690;2023-04-25T09:49:48;10.05;;;2.85;;
78887;SDS011;68276;49.326;8.690;2023-04-25T09:52:16;11.63;;;3.30;;
78887;SDS011;68276;49.326;8.690;2023-04-25T09:54:46;11.40;;;3.60;;
78887;SDS011;68276;49.326;8.690;2023-04-25T09:57:16;11.98;;;2.90;;
78887;SDS011;68276;49.326;8.690;2023-04-25T09:59:47;9.45;;;2.90;;
78887;SDS011;68276;49.326;8.690;2023-04-25T10:02:15;13.80;;;3.53;;
78887;SDS011;68276;49.326;8.690;2023-04-25T10:04:47;9.27;;;2.88;;
78887;SDS011;68276;49.326;8.690;2023-04-25T10:07:18;10.60;;;3.00;;
78887;SDS011;68276;49.326;8.690;2023-04-25T10:09:44;8.98;;;2.65;;
78887;SDS011;68276;49.326;8.690;2023-04-25T10:12:14;10.93;;;3.25;;
78887;SDS011;68276;49.326;8.690;2023-04-25T10:14:41;11.73;;;2.72;;
78887;SDS011;68276;49.326;8.690;2023-04-25T10:17:08;12.55;;;3.17;;
78887;SDS011;68276;49.326;8.690;2023-04-25T10:19:36;11.18;;;3.03;;
78887;SDS011;68276;49.326;8.690;2023-04-25T10:22:10;11.45;;;3.10;;
78887;SDS011;68276;49.326;8.690;2023-04-25T10:24:39;12.20;;;3.42;;
78887;SDS011;68276;49.326;8.690;2023-04-25T10:27:06;11.05;;;2.80;;
78887;SDS011;68276;49.326;8.690;2023-04-25T10:29:33;8.15;;;2.90;;
78887;SDS011;68276;49.326;8.690;2023-04-25T10:31:58;13.10;;;3.50;;
78887;SDS011;68276;49.326;8.690;2023-04-25T10:34:24;9.75;;;2.85;;
78887;SDS011;68276;49.326;8.690;2023-04-25T10:37:03;8.68;;;2.65;;
78887;SDS011;68276;49.326;8.690;2023-04-25T10:39:29;9.57;;;2.53;;
78887;SDS011;68276;49.326;8.690;2023-04-25T10:41:58;7.45;;;2.53;;
78887;SDS011;68276;49.326;8.690;2023-04-25T10:44:27;10.95;;;2.75;;
78887;SDS011;68276;49.326;8.690;2023-04-25T10:46:57;10.48;;;2.38;;
78887;SDS011;68276;49.326;8.690;2023-04-25T10:49:31;10.32;;;3.15;;
78887;SDS011;68276;49.326;8.690;2023-04-25T10:54:42;10.82;;;2.83;;
78887;SDS011;68276;49.326;8.690;2023-04-25T10:57:26;9.70;;;2.60;;
78887;SDS011;68276;49.326;8.690;2023-04-25T11:02:30;9.02;;;2.55;;
78887;SDS011;68276;49.326;8.690;2023-04-25T11:04:56;9.57;;;2.70;;
78887;SDS011;68276;49.326;8.690;2023-04-25T11:10:10;6.28;;;2.17;;
78887;SDS011;68276;49.326;8.690;2023-04-25T11:12:36;10.40;;;2.30;;
78887;SDS011;68276;49.326;8.690;2023-04-25T11:15:05;10.70;;;3.03;;
78887;SDS011;68276;49.326;8.690;2023-04-25T11:17:33;8.75;;;2.33;;
78887;SDS011;68276;49.326;8.690;2023-04-25T11:19:59;10.73;;;3.20;;
78887;SDS011;68276;49.326;8.690;2023-04-25T11:22:26;8.88;;;2.45;;
78887;SDS011;68276;49.326;8.690;2023-04-25T11:24:52;12.10;;;3.08;;
78887;SDS011;68276;49.326;8.690;2023-04-25T11:27:18;10.27;;;2.75;;
78887;SDS011;68276;49.326;8.690;2023-04-25T11:29:43;9.38;;;2.40;;
78887;SDS011;68276;49.326;8.690;2023-04-25T11:32:09;10.23;;;2.65;;
78887;SDS011;68276;49.326;8.690;2023-04-25T11:34:35;7.72;;;2.53;;
78887;SDS011;68276;49.326;8.690;2023-04-25T11:37:01;10.13;;;2.88;;
78887;SDS011;68276;49.326;8.690;2023-04-25T11:39:27;8.95;;;3.05;;
78887;SDS011;68276;49.326;8.690;2023-04-25T11:41:53;8.63;;;2.67;;
78887;SDS011;68276;49.326;8.690;2023-04-25T11:44:20;11.82;;;2.80;;
78887;SDS011;68276;49.326;8.690;2023-04-25T11:46:46;10.43;;;2.75;;
78887;SDS011;68276;49.326;8.690;2023-04-25T11:49:13;9.20;;;2.58;;
78887;SDS011;68276;49.326;8.690;2023-04-25T11:54:08;11.38;;;3.20;;
78887;SDS011;68276;49.326;8.690;2023-04-25T11:56:34;7.38;;;2.58;;
78887;SDS011;68276;49.326;8.690;2023-04-25T11:59:00;7.72;;;2.28;;
78887;SDS011;68276;49.326;8.690;2023-04-25T12:01:31;9.77;;;2.50;;
78887;SDS011;68276;49.326;8.690;2023-04-25T12:03:57;8.50;;;2.38;;
78887;SDS011;68276;49.326;8.690;2023-04-25T12:06:30;7.88;;;2.78;;
78887;SDS011;68276;49.326;8.690;2023-04-25T12:09:02;9.52;;;2.15;;
78887;SDS011;68276;49.326;8.690;2023-04-25T12:11:32;10.43;;;2.33;;
78887;SDS011;68276;49.326;8.690;2023-04-25T12:14:05;9.52;;;2.38;;
78887;SDS011;68276;49.326;8.690;2023-04-25T12:16:41;6.80;;;1.95;;
78887;SDS011;68276;49.326;8.690;2023-04-25T12:19:13;7.00;;;2.10;;
78887;SDS011;68276;49.326;8.690;2023-04-25T12:21:39;7.25;;;1.88;;
78887;SDS011;68276;49.326;8.690;2023-04-25T12:24:12;8.45;;;2.10;;
78887;SDS011;68276;49.326;8.690;2023-04-25T12:29:24;8.75;;;2.30;;
78887;SDS011;68276;49.326;8.690;2023-04-25T12:31:51;7.32;;;2.38;;
78887;SDS011;68276;49.326;8.690;2023-04-25T12:34:18;9.45;;;2.15;;
78887;SDS011;68276;49.326;8.690;2023-04-25T12:36:44;5.63;;;2.00;;
78887;SDS011;68276;49.326;8.690;2023-04-25T12:39:16;6.90;;;1.85;;
78887;SDS011;68276;49.326;8.690;2023-04-25T12:41:44;6.55;;;1.92;;
78887;SDS011;68276;49.326;8.690;2023-04-25T12:46:36;8.52;;;2.13;;
78887;SDS011;68276;49.326;8.690;2023-04-25T12:49:02;8.18;;;2.53;;
78887;SDS011;68276;49.326;8.690;2023-04-25T12:51:29;9.60;;;2.17;;
78887;SDS011;68276;49.326;8.690;2023-04-25T12:53:54;8.80;;;2.88;;
78887;SDS011;68276;49.326;8.690;2023-04-25T12:56:20;8.20;;;2.20;;
78887;SDS011;68276;49.326;8.690;2023-04-25T12:58:45;9.40;;;2.70;;
78887;SDS011;68276;49.326;8.690;2023-04-25T13:01:12;10.30;;;2.55;;
78887;SDS011;68276;49.326;8.690;2023-04-25T13:03:38;10.02;;;2.55;;
78887;SDS011;68276;49.326;8.690;2023-04-25T13:06:04;7.47;;;2.90;;
78887;SDS011;68276;49.326;8.690;2023-04-25T13:08:30;8.10;;;2.50;;
78887;SDS011;68276;49.326;8.690;2023-04-25T13:10:56;7.82;;;2.40;;
78887;SDS011;68276;49.326;8.690;2023-04-25T13:13:21;8.10;;;2.10;;
78887;SDS011;68276;49.326;8.690;2023-04-25T13:15:47;7.82;;;2.42;;
78887;SDS011;68276;49.326;8.690;2023-04-25T13:18:12;7.43;;;2.47;;
78887;SDS011;68276;49.326;8.690;2023-04-25T13:20:38;9.15;;;2.00;;
78887;SDS011;68276;49.326;8.690;2023-04-25T13:23:03;9.52;;;2.30;;
78887;SDS011;68276;49.326;8.690;2023-04-25T13:25:28;6.37;;;2.30;;
78887;SDS011;68276;49.326;8.690;2023-04-25T13:27:54;6.40;;;1.93;;
78887;SDS011;68276;49.326;8.690;2023-04-25T13:30:19;6.43;;;2.20;;
78887;SDS011;68276;49.326;8.690;2023-04-25T13:32:44;7.40;;;2.10;;
78887;SDS011;68276;49.326;8.690;2023-04-25T13:35:11;8.35;;;2.30;;
78887;SDS011;68276;49.326;8.690;2023-04-25T13:37:37;6.40;;;2.30;;
78887;SDS011;68276;49.326;8.690;2023-04-25T13:40:04;6.38;;;2.08;;
78887;SDS011;68276;49.326;8.690;2023-04-25T13:42:33;7.85;;;2.55;;
78887;SDS011;68276;49.326;8.690;2023-04-25T13:44:59;7.77;;;2.50;;
78887;SDS011;68276;49.326;8.690;2023-04-25T13:47:25;7.83;;;2.27;;
78887;SDS011;68276;49.326;8.690;2023-04-25T13:49:51;6.05;;;2.10;;
78887;SDS011;68276;49.326;8.690;2023-04-25T13:52:17;7.33;;;2.03;;
78887;SDS011;68276;49.326;8.690;2023-04-25T13:54:42;6.00;;;2.03;;
78887;SDS011;68276;49.326;8.690;2023-04-25T13:57:07;8.27;;;2.30;;
78887;SDS011;68276;49.326;8.690;2023-04-25T13:59:34;7.82;;;2.45;;
78887;SDS011;68276;49.326;8.690;2023-04-25T14:01:59;9.35;;;2.17;;
78887;SDS011;68276;49.326;8.690;2023-04-25T14:04:25;7.45;;;2.83;;
78887;SDS011;68276;49.326;8.690;2023-04-25T14:06:51;13.13;;;2.92;;
78887;SDS011;68276;49.326;8.690;2023-04-25T14:09:17;9.43;;;2.80;;
78887;SDS011;68276;49.326;8.690;2023-04-25T14:11:43;7.90;;;3.00;;
78887;SDS011;68276;49.326;8.690;2023-04-25T14:14:11;12.03;;;3.20;;
78887;SDS011;68276;49.326;8.690;2023-04-25T14:16:38;7.50;;;2.70;;
78887;SDS011;68276;49.326;8.690;2023-04-25T14:19:04;6.90;;;1.80;;
78887;SDS011;68276;49.326;8.690;2023-04-25T14:21:29;6.93;;;2.23;;
78887;SDS011;68276;49.326;8.690;2023-04-25T14:23:57;8.65;;;2.55;;
78887;SDS011;68276;49.326;8.690;2023-04-25T14:26:22;6.30;;;2.05;;
78887;SDS011;68276;49.326;8.690;2023-04-25T14:28:48;6.72;;;2.40;;
78887;SDS011;68276;49.326;8.690;2023-04-25T14:31:13;9.30;;;2.92;;
78887;SDS011;68276;49.326;8.690;2023-04-25T14:33:39;8.70;;;2.47;;
78887;SDS011;68276;49.326;8.690;2023-04-25T14:36:07;8.45;;;2.40;;
78887;SDS011;68276;49.326;8.690;2023-04-25T14:38:33;9.32;;;2.53;;
78887;SDS011;68276;49.326;8.690;2023-04-25T14:40:58;9.87;;;2.77;;
78887;SDS011;68276;49.326;8.690;2023-04-25T14:43:23;8.43;;;2.75;;
78887;SDS011;68276;49.326;8.690;2023-04-25T14:45:49;10.77;;;2.40;;
78887;SDS011;68276;49.326;8.690;2023-04-25T14:48:14;7.82;;;2.40;;
78887;SDS011;68276;49.326;8.690;2023-04-25T14:50:41;7.43;;;2.35;;
78887;SDS011;68276;49.326;8.690;2023-04-25T14:53:06;9.90;;;2.50;;
78887;SDS011;68276;49.326;8.690;2023-04-25T14:55:32;6.47;;;2.10;;
78887;SDS011;68276;49.326;8.690;2023-04-25T14:57:57;11.43;;;2.43;;
78887;SDS011;68276;49.326;8.690;2023-04-25T15:00:22;8.87;;;2.40;;